CSCL Shanghai — A8HL4 — position and weather

sailwx.info

Track history (hours):
 
Tides and Currents Weather Stations Pressure Air Temp Water Temp Dewpoint Dewpoint Depression Visibility Wind Speed Wind Dir Waves Ship Positions

CSCL Shanghai

Last reported at 2017-Nov-11 15:30 UTC. Time now 2017-Nov-20 00:27 UTC.
Position N 35°36' W 015°35'.
Warning: this ship's position is 8 days out of date.

Length 274.8 m; beam 40 m; draft 14 m.

Type: Ship (hazmat cat D). MMSI: 636090915.

Date/timePositionNaut miles runAvg speedWind from/ knotsBaromVisibWave heightAir tempDewpointWater temp
2017-Nov-11 15:30N 35°36' W 015°35'7715.0
2017-Nov-11 10:24N 35°42' W 014°01'41415.7
2017-Nov-10 08:03N 35°59' W 005°31'116.4
2017-Nov-10 08:00N 35°59' W 005°30'816.1
2017-Nov-10 07:30N 36°01' W 005°20'714.8
2017-Nov-10 07:00N 36°03' W 005°12'21114.9
2017-Nov-09 16:52N 37°13' W 001°04'1015.7
2017-Nov-09 16:13N 37°20' W 000°55'316.5
2017-Nov-09 16:00N 37°22' W 000°51'816.7
2017-Nov-09 15:31N 37°27' W 000°44'816.4
2017-Nov-09 15:01N 37°33' W 000°36'816.0
2017-Nov-09 14:31N 37°39' W 000°30'816.0
2017-Nov-09 14:00N 37°45' W 000°23'1415.6
2017-Nov-09 13:06N 37°57' W 000°13'215.5
2017-Nov-09 13:00N 37°58' W 000°13'195 4.4
2017-Nov-07 17:02N 40°51' E 001°44'1 7.5
2017-Nov-07 16:51N 40°52' E 001°45'3 7.5
2017-Nov-07 16:31N 40°54' E 001°47'4 7.7
2017-Nov-07 16:00N 40°57' E 001°51'4 7.8
2017-Nov-07 15:30N 41°01' E 001°54'4 7.9
2017-Nov-07 15:01N 41°04' E 001°57'4 7.7
2017-Nov-07 14:30N 41°07' E 002°00'4 7.6
2017-Nov-07 14:00N 41°10' E 002°03'4 7.3
2017-Nov-07 13:30N 41°12' E 002°06'6 7.0
2017-Nov-07 12:37N 41°18' E 002°11'1 0.1
2017-Nov-07 00:21N 41°19' E 002°10'138 6.3
2017-Nov-06 02:24N 42°40' E 004°41'510.3
2017-Nov-06 01:58N 42°41' E 004°47'510.3
2017-Nov-06 01:29N 42°42' E 004°53'510.4
2017-Nov-06 01:00N 42°43' E 005°00'510.5
2017-Nov-06 00:30N 42°44' E 005°07'610.9
2017-Nov-05 23:55N 42°45' E 005°16'8411.0
2017-Nov-05 16:18N 43°13' E 007°03'311.6
2017-Nov-05 16:00N 43°15' E 007°07'612.0
2017-Nov-05 15:30N 43°18' E 007°14'713.0
2017-Nov-05 14:59N 43°22' E 007°21'5812.7
2017-Nov-05 10:27N 43°59' E 008°23'613.1
2017-Nov-05 10:00N 44°04' E 008°27'613.0
2017-Nov-05 09:30N 44°09' E 008°32'612.9
2017-Nov-05 09:00N 44°15' E 008°36'612.1
2017-Nov-05 08:30N 44°20' E 008°41'611.7
2017-Nov-05 08:00N 44°25' E 008°45'2 3.6
2017-Nov-05 07:31N 44°25' E 008°48'0 0.0
2017-Nov-05 07:01N 44°25' E 008°48'0 0.0
2017-Nov-05 06:31N 44°25' E 008°48'0 0.0
2017-Nov-05 05:55N 44°25' E 008°48'0 0.0
2017-Nov-05 05:25N 44°25' E 008°48'0 0.0
2017-Nov-05 04:58N 44°25' E 008°48'0 0.0
2017-Nov-05 04:31N 44°25' E 008°48'0 0.0
2017-Nov-05 04:01N 44°25' E 008°48'0 0.0
2017-Nov-05 03:28N 44°25' E 008°48'0 0.0
2017-Nov-05 03:01N 44°25' E 008°48'0 0.0
2017-Nov-05 02:31N 44°25' E 008°48'0 0.1
2017-Nov-05 02:01N 44°25' E 008°48'0 0.1
2017-Nov-05 01:31N 44°25' E 008°48'0 0.0
2017-Nov-05 01:01N 44°25' E 008°48'0 0.0
2017-Nov-05 00:31N 44°25' E 008°48'0 0.0
2017-Nov-05 00:01N 44°25' E 008°48'0 0.0
2017-Nov-04 23:28N 44°25' E 008°48'0 0.0
2017-Nov-04 22:59N 44°25' E 008°48'0 0.0
2017-Nov-04 22:29N 44°25' E 008°48'0 0.0
2017-Nov-04 21:59N 44°25' E 008°48'0 0.0
2017-Nov-04 21:29N 44°25' E 008°48'0 0.0
2017-Nov-04 20:59N 44°25' E 008°48'0 0.0
2017-Nov-04 20:29N 44°25' E 008°48'0 0.0
2017-Nov-04 19:59N 44°25' E 008°48'0 0.0
2017-Nov-04 19:29N 44°25' E 008°48'0 0.0
2017-Nov-04 18:59N 44°25' E 008°48'0 0.0
2017-Nov-04 18:29N 44°25' E 008°48'0 0.0
2017-Nov-04 17:59N 44°25' E 008°48'0 0.0
2017-Nov-04 17:29N 44°25' E 008°48'0 0.0
2017-Nov-04 16:59N 44°25' E 008°48'0 0.0
2017-Nov-04 16:29N 44°25' E 008°48'0 0.0
2017-Nov-04 15:59N 44°25' E 008°48'0 0.0
2017-Nov-04 15:26N 44°25' E 008°48'0 0.0
2017-Nov-04 14:59N 44°25' E 008°48'0 0.1
2017-Nov-04 14:29N 44°25' E 008°48'0 0.0
2017-Nov-04 13:59N 44°25' E 008°48'0 0.0
2017-Nov-04 13:29N 44°25' E 008°48'0 0.0
2017-Nov-04 12:59N 44°25' E 008°48'0 0.0
2017-Nov-04 12:29N 44°25' E 008°48'0 0.0
2017-Nov-04 11:59N 44°25' E 008°48'0 0.0
2017-Nov-04 11:29N 44°25' E 008°48'0 0.0
2017-Nov-04 10:59N 44°25' E 008°48'0 0.0
2017-Nov-04 10:29N 44°25' E 008°48'0 0.0
2017-Nov-04 09:59N 44°25' E 008°48'0 0.0
2017-Nov-04 09:29N 44°25' E 008°48'0 0.1
2017-Nov-04 08:59N 44°25' E 008°48'0 0.1
2017-Nov-04 08:29N 44°25' E 008°48'0 0.0
2017-Nov-04 07:59N 44°25' E 008°48'0 0.0
2017-Nov-04 07:29N 44°25' E 008°48'0 0.0
2017-Nov-04 06:59N 44°25' E 008°48'0 0.0
2017-Nov-04 06:29N 44°25' E 008°48'1 1.1
2017-Nov-04 06:00N 44°25' E 008°47'2 3.5
2017-Nov-04 05:30N 44°24' E 008°45'0 0.9
2017-Nov-04 04:58N 44°24' E 008°46'0 0.0
2017-Nov-04 04:28N 44°24' E 008°46'0 0.0
2017-Nov-04 03:58N 44°24' E 008°46'0 0.0
2017-Nov-04 03:28N 44°24' E 008°46'0 0.0
2017-Nov-04 02:58N 44°24' E 008°45'0 0.1
2017-Nov-04 02:28N 44°24' E 008°46'0 0.1
2017-Nov-04 01:58N 44°24' E 008°46'0 0.1
2017-Nov-04 01:28N 44°24' E 008°46'0 0.0
2017-Nov-04 00:58N 44°24' E 008°46'0 0.0
2017-Nov-04 00:28N 44°24' E 008°46'0 0.0
2017-Nov-03 23:58N 44°24' E 008°46'0 0.1
2017-Nov-03 23:28N 44°24' E 008°45'0 0.0
2017-Nov-03 22:58N 44°24' E 008°45'0 0.0
2017-Nov-03 22:19N 44°24' E 008°45'0 0.0
2017-Nov-03 21:52N 44°24' E 008°45'0 0.0
2017-Nov-03 21:28N 44°24' E 008°45'0 0.0
2017-Nov-03 20:52N 44°24' E 008°45'0 0.0
2017-Nov-03 20:22N 44°24' E 008°45'0 0.0
2017-Nov-03 19:58N 44°24' E 008°45'0 0.1
2017-Nov-03 19:25N 44°24' E 008°45'0 0.2
2017-Nov-03 18:58N 44°24' E 008°45'0 0.2
2017-Nov-03 18:25N 44°24' E 008°45'0 0.1
2017-Nov-03 17:55N 44°24' E 008°45'0 0.1
2017-Nov-03 17:28N 44°24' E 008°45'0 0.0
2017-Nov-03 16:58N 44°24' E 008°45'0 0.0
2017-Nov-03 16:28N 44°24' E 008°45'0 0.4
2017-Nov-03 16:00N 44°24' E 008°46'4 7.7
2017-Nov-03 15:30N 44°21' E 008°44'510.4
2017-Nov-03 15:00N 44°17' E 008°49'510.8
2017-Nov-03 14:30N 44°13' E 008°55'510.8
2017-Nov-03 14:00N 44°10' E 009°00'510.8
2017-Nov-03 13:30N 44°06' E 009°06'611.4
2017-Nov-03 13:00N 44°02' E 009°12'612.8
2017-Nov-03 12:30N 43°58' E 009°18'612.5
2017-Nov-03 12:00N 43°54' E 009°25'612.5
2017-Nov-03 11:30N 43°49' E 009°31'612.6
2017-Nov-03 11:00N 43°45' E 009°38'611.8
2017-Nov-03 10:30N 43°41' E 009°44'611.3
2017-Nov-03 10:00N 43°38' E 009°50'611.8
2017-Nov-03 09:30N 43°34' E 009°56'611.1
2017-Nov-03 09:00N 43°32' E 010°03'611.5
2017-Nov-03 08:30N 43°30' E 010°10'510.5
2017-Nov-03 08:00N 43°32' E 010°17'2 4.7
2017-Nov-03 07:30N 43°34' E 010°18'0 0.3
2017-Nov-03 06:58N 43°35' E 010°18'0 0.0
2017-Nov-03 06:28N 43°35' E 010°18'0 0.0
2017-Nov-03 05:58N 43°35' E 010°18'0 0.0
2017-Nov-03 05:28N 43°35' E 010°18'0 0.0
2017-Nov-03 04:58N 43°35' E 010°18'0 0.0
2017-Nov-03 04:25N 43°35' E 010°18'0 0.0
2017-Nov-03 03:58N 43°35' E 010°18'0 0.0
2017-Nov-03 03:28N 43°35' E 010°18'0 0.0
2017-Nov-03 02:58N 43°35' E 010°18'0 0.0
2017-Nov-03 02:28N 43°35' E 010°18'0 0.0
2017-Nov-03 01:58N 43°35' E 010°18'0 0.0
2017-Nov-03 01:28N 43°35' E 010°18'0 0.0
2017-Nov-03 00:58N 43°35' E 010°18'0 0.0
2017-Nov-03 00:28N 43°35' E 010°18'0 0.0
2017-Nov-02 23:58N 43°35' E 010°18'0 0.0
2017-Nov-02 23:25N 43°35' E 010°18'0 0.0
2017-Nov-02 22:58N 43°35' E 010°18'0 0.0
2017-Nov-02 22:28N 43°35' E 010°18'0 0.0
2017-Nov-02 21:58N 43°35' E 010°18'0 0.0
2017-Nov-02 21:25N 43°35' E 010°18'0 0.0
2017-Nov-02 20:58N 43°35' E 010°18'0 0.0
2017-Nov-02 20:25N 43°35' E 010°18'0 0.0
2017-Nov-02 19:55N 43°35' E 010°18'0 0.0
2017-Nov-02 19:25N 43°35' E 010°18'0 0.0
2017-Nov-02 18:58N 43°35' E 010°18'0 0.0
2017-Nov-02 18:25N 43°35' E 010°18'0 0.0
2017-Nov-02 17:58N 43°35' E 010°18'0 0.0
2017-Nov-02 17:28N 43°35' E 010°18'0 0.0
2017-Nov-02 16:58N 43°35' E 010°18'0 0.0
2017-Nov-02 16:28N 43°35' E 010°18'0 0.0
2017-Nov-02 15:58N 43°35' E 010°18'0 0.0
2017-Nov-02 15:25N 43°35' E 010°18'0 0.0
2017-Nov-02 14:58N 43°35' E 010°18'0 0.0
2017-Nov-02 14:25N 43°35' E 010°18'0 0.0
2017-Nov-02 13:58N 43°35' E 010°18'0 0.0
2017-Nov-02 13:28N 43°35' E 010°18'0 0.4
2017-Nov-02 13:00N 43°34' E 010°18'2 4.9
2017-Nov-02 12:30N 43°32' E 010°17'2 4.1
2017-Nov-02 12:00N 43°31' E 010°15'1 2.7
2017-Nov-02 11:31N 43°29' E 010°16'0 0.3
2017-Nov-02 10:46N 43°30' E 010°16'0 0.0
2017-Nov-02 10:25N 43°30' E 010°16'0 0.0
2017-Nov-02 09:58N 43°30' E 010°16'0 0.0
2017-Nov-02 09:28N 43°30' E 010°16'0 0.0
2017-Nov-02 08:58N 43°30' E 010°16'0 0.0
2017-Nov-02 08:28N 43°30' E 010°16'0 0.0
2017-Nov-02 07:58N 43°30' E 010°16'0 0.0
2017-Nov-02 07:28N 43°30' E 010°16'0 0.0
2017-Nov-02 06:58N 43°30' E 010°16'0 0.0
2017-Nov-02 06:28N 43°30' E 010°16'0 0.0
2017-Nov-02 05:58N 43°30' E 010°16'0 0.0
2017-Nov-02 05:28N 43°30' E 010°16'0 0.0
2017-Nov-02 04:58N 43°30' E 010°16'0 0.0
2017-Nov-02 04:28N 43°30' E 010°16'0 0.1
2017-Nov-02 03:58N 43°30' E 010°16'0 0.0
2017-Nov-02 03:22N 43°30' E 010°16'0 0.0
2017-Nov-02 02:58N 43°30' E 010°16'0 0.1
2017-Nov-02 02:25N 43°30' E 010°16'0 0.0
2017-Nov-02 01:58N 43°30' E 010°16'0 0.0
2017-Nov-02 01:28N 43°30' E 010°16'0 0.0
2017-Nov-02 00:58N 43°30' E 010°16'0 0.0
2017-Nov-02 00:25N 43°29' E 010°16'0 0.0
2017-Nov-01 23:58N 43°29' E 010°16'0 0.1
2017-Nov-01 23:28N 43°30' E 010°16'0 0.1
2017-Nov-01 22:58N 43°30' E 010°16'0 0.1
2017-Nov-01 22:28N 43°30' E 010°16'0 0.0
2017-Nov-01 21:58N 43°30' E 010°16'0 0.0
2017-Nov-01 21:28N 43°30' E 010°16'0 0.1
2017-Nov-01 20:52N 43°30' E 010°16'0 0.0
2017-Nov-01 20:25N 43°30' E 010°16'0 0.1
2017-Nov-01 19:55N 43°29' E 010°16'0 0.0
2017-Nov-01 19:28N 43°29' E 010°16'0 0.0
2017-Nov-01 18:55N 43°29' E 010°16'0 0.0
2017-Nov-01 18:28N 43°29' E 010°16'  
Track history (hours):
 
Tides and Currents Weather Stations Pressure Air Temp Water Temp Dewpoint Dewpoint Depression Visibility Wind Speed Wind Dir Waves Ship Positions

CSCL Shanghai

Last reported at 2017-Nov-11 15:30 UTC. Time now 2017-Nov-20 00:27 UTC.
Position N 35°36' W 015°35'.
Warning: this ship's position is 8 days out of date.

Length 274.8 m; beam 40 m; draft 14 m.

Type: Ship (hazmat cat D). MMSI: 636090915.

Date/timePositionNaut miles runAvg speedWind from/ knotsBaromVisibWave heightAir tempDewpointWater temp
2017-Nov-11 15:30N 35°36' W 015°35'7715.0
2017-Nov-11 10:24N 35°42' W 014°01'41415.7
2017-Nov-10 08:03N 35°59' W 005°31'116.4
2017-Nov-10 08:00N 35°59' W 005°30'816.1
2017-Nov-10 07:30N 36°01' W 005°20'714.8
2017-Nov-10 07:00N 36°03' W 005°12'21114.9
2017-Nov-09 16:52N 37°13' W 001°04'1015.7
2017-Nov-09 16:13N 37°20' W 000°55'316.5
2017-Nov-09 16:00N 37°22' W 000°51'816.7
2017-Nov-09 15:31N 37°27' W 000°44'816.4
2017-Nov-09 15:01N 37°33' W 000°36'816.0
2017-Nov-09 14:31N 37°39' W 000°30'816.0
2017-Nov-09 14:00N 37°45' W 000°23'1415.6
2017-Nov-09 13:06N 37°57' W 000°13'215.5
2017-Nov-09 13:00N 37°58' W 000°13'195 4.4
2017-Nov-07 17:02N 40°51' E 001°44'1 7.5
2017-Nov-07 16:51N 40°52' E 001°45'3 7.5
2017-Nov-07 16:31N 40°54' E 001°47'4 7.7
2017-Nov-07 16:00N 40°57' E 001°51'4 7.8
2017-Nov-07 15:30N 41°01' E 001°54'4 7.9
2017-Nov-07 15:01N 41°04' E 001°57'4 7.7
2017-Nov-07 14:30N 41°07' E 002°00'4 7.6
2017-Nov-07 14:00N 41°10' E 002°03'4 7.3
2017-Nov-07 13:30N 41°12' E 002°06'6 7.0
2017-Nov-07 12:37N 41°18' E 002°11'1 0.1
2017-Nov-07 00:21N 41°19' E 002°10'138 6.3
2017-Nov-06 02:24N 42°40' E 004°41'510.3
2017-Nov-06 01:58N 42°41' E 004°47'510.3
2017-Nov-06 01:29N 42°42' E 004°53'510.4
2017-Nov-06 01:00N 42°43' E 005°00'510.5
2017-Nov-06 00:30N 42°44' E 005°07'610.9
2017-Nov-05 23:55N 42°45' E 005°16'8411.0
2017-Nov-05 16:18N 43°13' E 007°03'311.6
2017-Nov-05 16:00N 43°15' E 007°07'612.0
2017-Nov-05 15:30N 43°18' E 007°14'713.0
2017-Nov-05 14:59N 43°22' E 007°21'5812.7
2017-Nov-05 10:27N 43°59' E 008°23'613.1
2017-Nov-05 10:00N 44°04' E 008°27'613.0
2017-Nov-05 09:30N 44°09' E 008°32'612.9
2017-Nov-05 09:00N 44°15' E 008°36'612.1
2017-Nov-05 08:30N 44°20' E 008°41'611.7
2017-Nov-05 08:00N 44°25' E 008°45'2 3.6
2017-Nov-05 07:31N 44°25' E 008°48'0 0.0
2017-Nov-05 07:01N 44°25' E 008°48'0 0.0
2017-Nov-05 06:31N 44°25' E 008°48'0 0.0
2017-Nov-05 05:55N 44°25' E 008°48'0 0.0
2017-Nov-05 05:25N 44°25' E 008°48'0 0.0
2017-Nov-05 04:58N 44°25' E 008°48'0 0.0
2017-Nov-05 04:31N 44°25' E 008°48'0 0.0
2017-Nov-05 04:01N 44°25' E 008°48'0 0.0
2017-Nov-05 03:28N 44°25' E 008°48'0 0.0
2017-Nov-05 03:01N 44°25' E 008°48'0 0.0
2017-Nov-05 02:31N 44°25' E 008°48'0 0.1
2017-Nov-05 02:01N 44°25' E 008°48'0 0.1
2017-Nov-05 01:31N 44°25' E 008°48'0 0.0
2017-Nov-05 01:01N 44°25' E 008°48'0 0.0
2017-Nov-05 00:31N 44°25' E 008°48'0 0.0
2017-Nov-05 00:01N 44°25' E 008°48'0 0.0
2017-Nov-04 23:28N 44°25' E 008°48'0 0.0
2017-Nov-04 22:59N 44°25' E 008°48'0 0.0
2017-Nov-04 22:29N 44°25' E 008°48'0 0.0
2017-Nov-04 21:59N 44°25' E 008°48'0 0.0
2017-Nov-04 21:29N 44°25' E 008°48'0 0.0
2017-Nov-04 20:59N 44°25' E 008°48'0 0.0
2017-Nov-04 20:29N 44°25' E 008°48'0 0.0
2017-Nov-04 19:59N 44°25' E 008°48'0 0.0
2017-Nov-04 19:29N 44°25' E 008°48'0 0.0
2017-Nov-04 18:59N 44°25' E 008°48'0 0.0
2017-Nov-04 18:29N 44°25' E 008°48'0 0.0
2017-Nov-04 17:59N 44°25' E 008°48'0 0.0
2017-Nov-04 17:29N 44°25' E 008°48'0 0.0
2017-Nov-04 16:59N 44°25' E 008°48'0 0.0
2017-Nov-04 16:29N 44°25' E 008°48'0 0.0
2017-Nov-04 15:59N 44°25' E 008°48'0 0.0
2017-Nov-04 15:26N 44°25' E 008°48'0 0.0
2017-Nov-04 14:59N 44°25' E 008°48'0 0.1
2017-Nov-04 14:29N 44°25' E 008°48'0 0.0
2017-Nov-04 13:59N 44°25' E 008°48'0 0.0
2017-Nov-04 13:29N 44°25' E 008°48'0 0.0
2017-Nov-04 12:59N 44°25' E 008°48'0 0.0
2017-Nov-04 12:29N 44°25' E 008°48'0 0.0
2017-Nov-04 11:59N 44°25' E 008°48'0 0.0
2017-Nov-04 11:29N 44°25' E 008°48'0 0.0
2017-Nov-04 10:59N 44°25' E 008°48'0 0.0
2017-Nov-04 10:29N 44°25' E 008°48'0 0.0
2017-Nov-04 09:59N 44°25' E 008°48'0 0.0
2017-Nov-04 09:29N 44°25' E 008°48'0 0.1
2017-Nov-04 08:59N 44°25' E 008°48'0 0.1
2017-Nov-04 08:29N 44°25' E 008°48'0 0.0
2017-Nov-04 07:59N 44°25' E 008°48'0 0.0
2017-Nov-04 07:29N 44°25' E 008°48'0 0.0
2017-Nov-04 06:59N 44°25' E 008°48'0 0.0
2017-Nov-04 06:29N 44°25' E 008°48'1 1.1
2017-Nov-04 06:00N 44°25' E 008°47'2 3.5
2017-Nov-04 05:30N 44°24' E 008°45'0 0.9
2017-Nov-04 04:58N 44°24' E 008°46'0 0.0
2017-Nov-04 04:28N 44°24' E 008°46'0 0.0
2017-Nov-04 03:58N 44°24' E 008°46'0 0.0
2017-Nov-04 03:28N 44°24' E 008°46'0 0.0
2017-Nov-04 02:58N 44°24' E 008°45'0 0.1
2017-Nov-04 02:28N 44°24' E 008°46'0 0.1
2017-Nov-04 01:58N 44°24' E 008°46'0 0.1
2017-Nov-04 01:28N 44°24' E 008°46'0 0.0
2017-Nov-04 00:58N 44°24' E 008°46'0 0.0
2017-Nov-04 00:28N 44°24' E 008°46'0 0.0
2017-Nov-03 23:58N 44°24' E 008°46'0 0.1
2017-Nov-03 23:28N 44°24' E 008°45'0 0.0
2017-Nov-03 22:58N 44°24' E 008°45'0 0.0
2017-Nov-03 22:19N 44°24' E 008°45'0 0.0
2017-Nov-03 21:52N 44°24' E 008°45'0 0.0
2017-Nov-03 21:28N 44°24' E 008°45'0 0.0
2017-Nov-03 20:52N 44°24' E 008°45'0 0.0
2017-Nov-03 20:22N 44°24' E 008°45'0 0.0
2017-Nov-03 19:58N 44°24' E 008°45'0 0.1
2017-Nov-03 19:25N 44°24' E 008°45'0 0.2
2017-Nov-03 18:58N 44°24' E 008°45'0 0.2
2017-Nov-03 18:25N 44°24' E 008°45'0 0.1
2017-Nov-03 17:55N 44°24' E 008°45'0 0.1
2017-Nov-03 17:28N 44°24' E 008°45'0 0.0
2017-Nov-03 16:58N 44°24' E 008°45'0 0.0
2017-Nov-03 16:28N 44°24' E 008°45'0 0.4
2017-Nov-03 16:00N 44°24' E 008°46'4 7.7
2017-Nov-03 15:30N 44°21' E 008°44'510.4
2017-Nov-03 15:00N 44°17' E 008°49'510.8
2017-Nov-03 14:30N 44°13' E 008°55'510.8
2017-Nov-03 14:00N 44°10' E 009°00'510.8
2017-Nov-03 13:30N 44°06' E 009°06'611.4
2017-Nov-03 13:00N 44°02' E 009°12'612.8
2017-Nov-03 12:30N 43°58' E 009°18'612.5
2017-Nov-03 12:00N 43°54' E 009°25'612.5
2017-Nov-03 11:30N 43°49' E 009°31'612.6
2017-Nov-03 11:00N 43°45' E 009°38'611.8
2017-Nov-03 10:30N 43°41' E 009°44'611.3
2017-Nov-03 10:00N 43°38' E 009°50'611.8
2017-Nov-03 09:30N 43°34' E 009°56'611.1
2017-Nov-03 09:00N 43°32' E 010°03'611.5
2017-Nov-03 08:30N 43°30' E 010°10'510.5
2017-Nov-03 08:00N 43°32' E 010°17'2 4.7
2017-Nov-03 07:30N 43°34' E 010°18'0 0.3
2017-Nov-03 06:58N 43°35' E 010°18'0 0.0
2017-Nov-03 06:28N 43°35' E 010°18'0 0.0
2017-Nov-03 05:58N 43°35' E 010°18'0 0.0
2017-Nov-03 05:28N 43°35' E 010°18'0 0.0
2017-Nov-03 04:58N 43°35' E 010°18'0 0.0
2017-Nov-03 04:25N 43°35' E 010°18'0 0.0
2017-Nov-03 03:58N 43°35' E 010°18'0 0.0
2017-Nov-03 03:28N 43°35' E 010°18'0 0.0
2017-Nov-03 02:58N 43°35' E 010°18'0 0.0
2017-Nov-03 02:28N 43°35' E 010°18'0 0.0
2017-Nov-03 01:58N 43°35' E 010°18'0 0.0
2017-Nov-03 01:28N 43°35' E 010°18'0 0.0
2017-Nov-03 00:58N 43°35' E 010°18'0 0.0
2017-Nov-03 00:28N 43°35' E 010°18'0 0.0
2017-Nov-02 23:58N 43°35' E 010°18'0 0.0
2017-Nov-02 23:25N 43°35' E 010°18'0 0.0
2017-Nov-02 22:58N 43°35' E 010°18'0 0.0
2017-Nov-02 22:28N 43°35' E 010°18'0 0.0
2017-Nov-02 21:58N 43°35' E 010°18'0 0.0
2017-Nov-02 21:25N 43°35' E 010°18'0 0.0
2017-Nov-02 20:58N 43°35' E 010°18'0 0.0
2017-Nov-02 20:25N 43°35' E 010°18'0 0.0
2017-Nov-02 19:55N 43°35' E 010°18'0 0.0
2017-Nov-02 19:25N 43°35' E 010°18'0 0.0
2017-Nov-02 18:58N 43°35' E 010°18'0 0.0
2017-Nov-02 18:25N 43°35' E 010°18'0 0.0
2017-Nov-02 17:58N 43°35' E 010°18'0 0.0
2017-Nov-02 17:28N 43°35' E 010°18'0 0.0
2017-Nov-02 16:58N 43°35' E 010°18'0 0.0
2017-Nov-02 16:28N 43°35' E 010°18'0 0.0
2017-Nov-02 15:58N 43°35' E 010°18'0 0.0
2017-Nov-02 15:25N 43°35' E 010°18'0 0.0
2017-Nov-02 14:58N 43°35' E 010°18'0 0.0
2017-Nov-02 14:25N 43°35' E 010°18'0 0.0
2017-Nov-02 13:58N 43°35' E 010°18'0 0.0
2017-Nov-02 13:28N 43°35' E 010°18'0 0.4
2017-Nov-02 13:00N 43°34' E 010°18'2 4.9
2017-Nov-02 12:30N 43°32' E 010°17'2 4.1
2017-Nov-02 12:00N 43°31' E 010°15'1 2.7
2017-Nov-02 11:31N 43°29' E 010°16'0 0.3
2017-Nov-02 10:46N 43°30' E 010°16'0 0.0
2017-Nov-02 10:25N 43°30' E 010°16'0 0.0
2017-Nov-02 09:58N 43°30' E 010°16'0 0.0
2017-Nov-02 09:28N 43°30' E 010°16'0 0.0
2017-Nov-02 08:58N 43°30' E 010°16'0 0.0
2017-Nov-02 08:28N 43°30' E 010°16'0 0.0
2017-Nov-02 07:58N 43°30' E 010°16'0 0.0
2017-Nov-02 07:28N 43°30' E 010°16'0 0.0
2017-Nov-02 06:58N 43°30' E 010°16'0 0.0
2017-Nov-02 06:28N 43°30' E 010°16'0 0.0
2017-Nov-02 05:58N 43°30' E 010°16'0 0.0
2017-Nov-02 05:28N 43°30' E 010°16'0 0.0
2017-Nov-02 04:58N 43°30' E 010°16'0 0.0
2017-Nov-02 04:28N 43°30' E 010°16'0 0.1
2017-Nov-02 03:58N 43°30' E 010°16'0 0.0
2017-Nov-02 03:22N 43°30' E 010°16'0 0.0
2017-Nov-02 02:58N 43°30' E 010°16'0 0.1
2017-Nov-02 02:25N 43°30' E 010°16'0 0.0
2017-Nov-02 01:58N 43°30' E 010°16'0 0.0
2017-Nov-02 01:28N 43°30' E 010°16'0 0.0
2017-Nov-02 00:58N 43°30' E 010°16'0 0.0
2017-Nov-02 00:25N 43°29' E 010°16'0 0.0
2017-Nov-01 23:58N 43°29' E 010°16'0 0.1
2017-Nov-01 23:28N 43°30' E 010°16'0 0.1
2017-Nov-01 22:58N 43°30' E 010°16'0 0.1
2017-Nov-01 22:28N 43°30' E 010°16'0 0.0
2017-Nov-01 21:58N 43°30' E 010°16'0 0.0
2017-Nov-01 21:28N 43°30' E 010°16'0 0.1
2017-Nov-01 20:52N 43°30' E 010°16'0 0.0
2017-Nov-01 20:25N 43°30' E 010°16'0 0.1
2017-Nov-01 19:55N 43°29' E 010°16'0 0.0
2017-Nov-01 19:28N 43°29' E 010°16'0 0.0
2017-Nov-01 18:55N 43°29' E 010°16'0 0.0
2017-Nov-01 18:28N 43°29' E 010°16'  

Dump ship's entire track history